sensor_id;sensor_type;location;lat;lon;timestamp;pressure;altitude;pressure_sealevel;temperature;humidity
48089;BME280;33867;50.314;7.802;2023-07-31T00:02:12;100134.19;;;18.27;68.33
48089;BME280;33867;50.314;7.802;2023-07-31T00:05:31;100129.72;;;18.48;68.48
48089;BME280;33867;50.314;7.802;2023-07-31T00:08:50;100135.72;;;18.36;68.92
48089;BME280;33867;50.314;7.802;2023-07-31T00:11:55;100138.44;;;18.36;70.11
48089;BME280;33867;50.314;7.802;2023-07-31T00:15:14;100137.72;;;18.56;70.88
48089;BME280;33867;50.314;7.802;2023-07-31T00:18:34;100125.72;;;18.50;69.90
48089;BME280;33867;50.314;7.802;2023-07-31T00:36:22;100095.94;;;18.49;67.88
48089;BME280;33867;50.314;7.802;2023-07-31T00:53:46;100093.44;;;18.54;68.63
48089;BME280;33867;50.314;7.802;2023-07-31T00:57:05;100099.31;;;18.57;67.93
48089;BME280;33867;50.314;7.802;2023-07-31T01:11:17;100082.75;;;18.52;66.69
48089;BME280;33867;50.314;7.802;2023-07-31T01:15:06;100099.56;;;18.62;67.40
48089;BME280;33867;50.314;7.802;2023-07-31T01:18:26;100094.44;;;18.81;67.32
48089;BME280;33867;50.314;7.802;2023-07-31T01:43:56;100077.84;;;18.76;66.96
48089;BME280;33867;50.314;7.802;2023-07-31T01:47:16;100082.69;;;18.74;66.49
48089;BME280;33867;50.314;7.802;2023-07-31T02:02:02;100082.06;;;18.78;67.52
48089;BME280;33867;50.314;7.802;2023-07-31T02:05:23;100079.97;;;18.80;67.81
48089;BME280;33867;50.314;7.802;2023-07-31T02:08:42;100071.59;;;18.88;66.58
48089;BME280;33867;50.314;7.802;2023-07-31T02:15:54;100062.97;;;18.78;67.62
48089;BME280;33867;50.314;7.802;2023-07-31T02:26:54;100059.44;;;18.84;68.21
48089;BME280;33867;50.314;7.802;2023-07-31T02:30:14;100057.09;;;18.81;67.75
48089;BME280;33867;50.314;7.802;2023-07-31T02:33:33;100051.66;;;18.88;67.88
48089;BME280;33867;50.314;7.802;2023-07-31T02:36:52;100048.13;;;19.01;68.01
48089;BME280;33867;50.314;7.802;2023-07-31T02:47:27;100050.22;;;18.98;68.61
48089;BME280;33867;50.314;7.802;2023-07-31T03:04:52;100045.34;;;18.74;70.29
48089;BME280;33867;50.314;7.802;2023-07-31T03:08:11;100047.38;;;18.65;70.11
48089;BME280;33867;50.314;7.802;2023-07-31T03:47:19;100045.63;;;18.51;74.21
48089;BME280;33867;50.314;7.802;2023-07-31T05:57:54;99985.41;;;19.27;71.67
48089;BME280;33867;50.314;7.802;2023-07-31T06:01:48;99967.13;;;19.27;73.44
48089;BME280;33867;50.314;7.802;2023-07-31T06:05:14;99983.72;;;19.52;72.11
48089;BME280;33867;50.314;7.802;2023-07-31T06:08:36;99978.91;;;19.54;71.95
48089;BME280;33867;50.314;7.802;2023-07-31T06:11:55;99986.25;;;19.47;71.55
48089;BME280;33867;50.314;7.802;2023-07-31T06:15:14;99977.63;;;19.11;71.62
48089;BME280;33867;50.314;7.802;2023-07-31T06:18:33;99974.50;;;19.34;71.22
48089;BME280;33867;50.314;7.802;2023-07-31T06:21:55;99979.78;;;19.55;71.53
48089;BME280;33867;50.314;7.802;2023-07-31T06:25:22;99970.28;;;19.51;70.09
48089;BME280;33867;50.314;7.802;2023-07-31T06:28:49;99974.09;;;19.70;69.56
48089;BME280;33867;50.314;7.802;2023-07-31T06:32:08;99971.25;;;20.16;69.30
48089;BME280;33867;50.314;7.802;2023-07-31T06:35:27;99965.75;;;20.23;68.10
48089;BME280;33867;50.314;7.802;2023-07-31T06:38:46;99958.47;;;20.61;67.38
48089;BME280;33867;50.314;7.802;2023-07-31T06:42:05;99959.41;;;22.41;62.39
48089;BME280;33867;50.314;7.802;2023-07-31T06:45:24;99954.34;;;22.02;61.60
48089;BME280;33867;50.314;7.802;2023-07-31T06:48:43;99955.56;;;21.19;64.31
48089;BME280;33867;50.314;7.802;2023-07-31T06:52:03;99954.75;;;21.12;66.63
48089;BME280;33867;50.314;7.802;2023-07-31T06:55:22;99946.19;;;21.02;67.76
48089;BME280;33867;50.314;7.802;2023-07-31T06:58:41;99951.78;;;20.82;70.13
48089;BME280;33867;50.314;7.802;2023-07-31T07:02:00;99943.97;;;20.54;70.30
48089;BME280;33867;50.314;7.802;2023-07-31T07:05:19;99948.38;;;20.62;69.71
48089;BME280;33867;50.314;7.802;2023-07-31T07:08:38;99939.19;;;20.43;68.93
48089;BME280;33867;50.314;7.802;2023-07-31T07:11:57;99929.06;;;20.50;70.19
48089;BME280;33867;50.314;7.802;2023-07-31T07:15:17;99926.88;;;20.65;70.78
48089;BME280;33867;50.314;7.802;2023-07-31T07:18:36;99926.91;;;20.59;69.79
48089;BME280;33867;50.314;7.802;2023-07-31T07:21:55;99926.28;;;20.57;71.04
48089;BME280;33867;50.314;7.802;2023-07-31T07:25:15;99930.72;;;21.14;69.42
48089;BME280;33867;50.314;7.802;2023-07-31T07:28:34;99930.63;;;21.02;67.73
48089;BME280;33867;50.314;7.802;2023-07-31T07:31:53;99938.91;;;20.58;68.33
48089;BME280;33867;50.314;7.802;2023-07-31T07:35:15;99933.19;;;20.66;69.74
48089;BME280;33867;50.314;7.802;2023-07-31T07:38:34;99927.81;;;20.39;67.78
48089;BME280;33867;50.314;7.802;2023-07-31T07:41:53;99920.50;;;21.03;68.87
48089;BME280;33867;50.314;7.802;2023-07-31T07:45:13;99925.19;;;21.27;68.91
48089;BME280;33867;50.314;7.802;2023-07-31T07:48:32;99935.09;;;21.22;67.82
48089;BME280;33867;50.314;7.802;2023-07-31T07:51:51;99915.22;;;21.08;66.67
48089;BME280;33867;50.314;7.802;2023-07-31T07:55:10;99907.56;;;21.42;67.46
48089;BME280;33867;50.314;7.802;2023-07-31T07:58:29;99897.66;;;21.41;64.84
48089;BME280;33867;50.314;7.802;2023-07-31T08:01:48;99896.56;;;21.48;65.23
48089;BME280;33867;50.314;7.802;2023-07-31T08:05:07;99902.13;;;21.60;67.83
48089;BME280;33867;50.314;7.802;2023-07-31T08:08:28;99899.97;;;21.62;66.68
48089;BME280;33867;50.314;7.802;2023-07-31T08:11:47;99893.16;;;21.71;65.14
48089;BME280;33867;50.314;7.802;2023-07-31T08:15:06;99909.63;;;21.21;62.66
48089;BME280;33867;50.314;7.802;2023-07-31T08:18:26;99919.63;;;21.09;65.62
48089;BME280;33867;50.314;7.802;2023-07-31T08:21:44;99920.94;;;21.00;66.43
48089;BME280;33867;50.314;7.802;2023-07-31T08:25:04;99921.31;;;20.79;66.29
48089;BME280;33867;50.314;7.802;2023-07-31T08:28:23;99908.88;;;20.51;67.06
48089;BME280;33867;50.314;7.802;2023-07-31T08:31:42;99917.09;;;20.38;67.14
48089;BME280;33867;50.314;7.802;2023-07-31T08:35:01;99920.59;;;20.13;68.91
48089;BME280;33867;50.314;7.802;2023-07-31T08:38:21;99911.34;;;20.08;69.45
48089;BME280;33867;50.314;7.802;2023-07-31T08:41:40;99905.59;;;20.23;71.07
48089;BME280;33867;50.314;7.802;2023-07-31T08:44:59;99901.81;;;20.24;73.06
48089;BME280;33867;50.314;7.802;2023-07-31T08:48:20;99902.91;;;20.16;73.79
48089;BME280;33867;50.314;7.802;2023-07-31T08:51:40;99893.72;;;19.97;75.03
48089;BME280;33867;50.314;7.802;2023-07-31T08:55:00;99896.53;;;19.71;73.49
48089;BME280;33867;50.314;7.802;2023-07-31T08:58:27;99896.28;;;19.92;73.47
48089;BME280;33867;50.314;7.802;2023-07-31T09:01:55;99897.38;;;19.78;73.67
48089;BME280;33867;50.314;7.802;2023-07-31T09:05:16;99892.09;;;19.76;76.26
48089;BME280;33867;50.314;7.802;2023-07-31T09:08:43;99886.50;;;19.58;76.38
48089;BME280;33867;50.314;7.802;2023-07-31T09:12:05;99897.84;;;19.42;78.13
48089;BME280;33867;50.314;7.802;2023-07-31T09:15:28;99887.56;;;19.24;76.62
48089;BME280;33867;50.314;7.802;2023-07-31T09:18:54;99884.38;;;19.53;77.34
48089;BME280;33867;50.314;7.802;2023-07-31T09:22:15;99885.56;;;19.91;76.05
48089;BME280;33867;50.314;7.802;2023-07-31T09:25:34;99882.00;;;19.83;77.80
48089;BME280;33867;50.314;7.802;2023-07-31T09:28:53;99875.25;;;19.93;77.30
48089;BME280;33867;50.314;7.802;2023-07-31T09:32:18;99864.78;;;20.28;76.23
48089;BME280;33867;50.314;7.802;2023-07-31T09:35:37;99868.00;;;20.56;75.41
48089;BME280;33867;50.314;7.802;2023-07-31T09:39:02;99864.09;;;20.70;74.95
48089;BME280;33867;50.314;7.802;2023-07-31T09:42:28;99864.19;;;20.57;75.63
48089;BME280;33867;50.314;7.802;2023-07-31T09:45:55;99860.31;;;20.71;75.63
48089;BME280;33867;50.314;7.802;2023-07-31T09:49:15;99859.31;;;20.28;78.54
48089;BME280;33867;50.314;7.802;2023-07-31T09:52:34;99848.31;;;20.34;77.61
48089;BME280;33867;50.314;7.802;2023-07-31T09:55:53;99844.91;;;20.52;76.47
48089;BME280;33867;50.314;7.802;2023-07-31T09:59:15;99840.44;;;20.83;76.12
48089;BME280;33867;50.314;7.802;2023-07-31T10:02:34;99839.84;;;20.81;76.11
48089;BME280;33867;50.314;7.802;2023-07-31T10:05:55;99848.28;;;21.04;75.49
48089;BME280;33867;50.314;7.802;2023-07-31T10:09:15;99838.72;;;20.25;75.78
48089;BME280;33867;50.314;7.802;2023-07-31T10:12:43;99835.19;;;20.56;78.44
48089;BME280;33867;50.314;7.802;2023-07-31T10:16:03;99831.47;;;20.44;76.80
48089;BME280;33867;50.314;7.802;2023-07-31T10:19:23;99828.47;;;20.52;77.20
48089;BME280;33867;50.314;7.802;2023-07-31T10:22:43;99832.66;;;20.55;78.29
48089;BME280;33867;50.314;7.802;2023-07-31T10:26:05;99829.69;;;20.63;77.49
48089;BME280;33867;50.314;7.802;2023-07-31T10:29:27;99823.84;;;20.53;72.46
48089;BME280;33867;50.314;7.802;2023-07-31T10:32:48;99813.59;;;20.98;74.99
48089;BME280;33867;50.314;7.802;2023-07-31T10:36:13;99807.09;;;20.67;74.10
48089;BME280;33867;50.314;7.802;2023-07-31T10:39:39;99803.09;;;20.70;74.49
48089;BME280;33867;50.314;7.802;2023-07-31T10:42:58;99811.66;;;19.72;77.95
48089;BME280;33867;50.314;7.802;2023-07-31T10:46:17;99808.25;;;19.83;74.84
48089;BME280;33867;50.314;7.802;2023-07-31T10:49:38;99807.47;;;19.63;78.12
48089;BME280;33867;50.314;7.802;2023-07-31T10:52:57;99808.38;;;20.02;76.90
48089;BME280;33867;50.314;7.802;2023-07-31T10:56:19;99796.78;;;20.38;77.68
48089;BME280;33867;50.314;7.802;2023-07-31T10:59:41;99789.38;;;20.13;75.66
48089;BME280;33867;50.314;7.802;2023-07-31T11:03:02;99784.44;;;20.29;74.41
48089;BME280;33867;50.314;7.802;2023-07-31T11:06:21;99775.81;;;20.63;74.85
48089;BME280;33867;50.314;7.802;2023-07-31T11:09:40;99777.13;;;20.79;72.14
48089;BME280;33867;50.314;7.802;2023-07-31T11:12:59;99773.75;;;21.02;71.42
48089;BME280;33867;50.314;7.802;2023-07-31T11:16:23;99777.56;;;21.01;69.55
48089;BME280;33867;50.314;7.802;2023-07-31T11:19:42;99780.97;;;20.71;67.41
48089;BME280;33867;50.314;7.802;2023-07-31T11:23:05;99774.34;;;20.86;68.83
48089;BME280;33867;50.314;7.802;2023-07-31T11:30:38;99781.16;;;20.77;67.49
48089;BME280;33867;50.314;7.802;2023-07-31T11:34:05;99780.97;;;20.96;66.37
48089;BME280;33867;50.314;7.802;2023-07-31T11:37:44;99786.38;;;21.03;64.50
48089;BME280;33867;50.314;7.802;2023-07-31T11:41:15;99792.13;;;21.20;66.88
48089;BME280;33867;50.314;7.802;2023-07-31T11:45:05;99783.41;;;21.48;66.08
48089;BME280;33867;50.314;7.802;2023-07-31T11:48:41;99772.28;;;21.61;65.90
48089;BME280;33867;50.314;7.802;2023-07-31T11:52:13;99767.00;;;21.78;63.03
48089;BME280;33867;50.314;7.802;2023-07-31T11:55:34;99762.72;;;22.30;62.35
48089;BME280;33867;50.314;7.802;2023-07-31T11:58:57;99753.03;;;23.04;61.73
48089;BME280;33867;50.314;7.802;2023-07-31T12:02:45;99731.59;;;24.10;56.35
48089;BME280;33867;50.314;7.802;2023-07-31T12:06:04;99736.00;;;23.95;58.08
48089;BME280;33867;50.314;7.802;2023-07-31T12:09:32;99754.88;;;23.62;59.16
48089;BME280;33867;50.314;7.802;2023-07-31T12:13:20;99749.84;;;23.71;58.34
48089;BME280;33867;50.314;7.802;2023-07-31T12:16:42;99758.34;;;23.46;58.10
48089;BME280;33867;50.314;7.802;2023-07-31T12:20:05;99748.13;;;23.18;58.65
48089;BME280;33867;50.314;7.802;2023-07-31T12:23:29;99745.59;;;23.28;56.80
48089;BME280;33867;50.314;7.802;2023-07-31T12:26:50;99741.63;;;23.48;58.28
48089;BME280;33867;50.314;7.802;2023-07-31T12:30:33;99743.66;;;23.92;58.49
48089;BME280;33867;50.314;7.802;2023-07-31T12:33:57;99731.41;;;24.29;59.01
48089;BME280;33867;50.314;7.802;2023-07-31T12:37:17;99748.00;;;24.34;57.23
48089;BME280;33867;50.314;7.802;2023-07-31T12:40:42;99745.84;;;24.69;57.11
48089;BME280;33867;50.314;7.802;2023-07-31T12:44:01;99726.31;;;24.71;55.48
48089;BME280;33867;50.314;7.802;2023-07-31T12:47:20;99713.59;;;24.65;54.73
48089;BME280;33867;50.314;7.802;2023-07-31T12:50:39;99705.31;;;24.65;56.08
48089;BME280;33867;50.314;7.802;2023-07-31T12:53:58;99725.59;;;24.59;55.94
48089;BME280;33867;50.314;7.802;2023-07-31T12:57:17;99735.22;;;24.28;55.74
48089;BME280;33867;50.314;7.802;2023-07-31T13:00:38;99723.97;;;23.84;53.96
48089;BME280;33867;50.314;7.802;2023-07-31T13:04:00;99729.56;;;23.60;55.68
48089;BME280;33867;50.314;7.802;2023-07-31T13:07:26;99717.78;;;23.25;56.61
48089;BME280;33867;50.314;7.802;2023-07-31T13:10:48;99719.00;;;23.05;58.83
48089;BME280;33867;50.314;7.802;2023-07-31T13:33:06;99734.97;;;22.38;58.44
48089;BME280;33867;50.314;7.802;2023-07-31T13:36:25;99731.44;;;22.20;59.57
48089;BME280;33867;50.314;7.802;2023-07-31T13:47:31;99733.88;;;22.39;59.40
48089;BME280;33867;50.314;7.802;2023-07-31T13:50:58;99734.31;;;22.25;59.70
48089;BME280;33867;50.314;7.802;2023-07-31T13:54:25;99712.63;;;22.35;59.10
48089;BME280;33867;50.314;7.802;2023-07-31T13:58:17;99706.56;;;22.44;59.20
48089;BME280;33867;50.314;7.802;2023-07-31T14:01:37;99709.91;;;22.46;59.39
48089;BME280;33867;50.314;7.802;2023-07-31T14:04:56;99723.13;;;22.26;58.51
48089;BME280;33867;50.314;7.802;2023-07-31T14:08:18;99725.66;;;22.39;59.17
48089;BME280;33867;50.314;7.802;2023-07-31T14:11:37;99719.47;;;22.56;58.44
48089;BME280;33867;50.314;7.802;2023-07-31T14:14:56;99711.94;;;22.51;59.39
48089;BME280;33867;50.314;7.802;2023-07-31T14:18:15;99686.19;;;22.99;59.10
48089;BME280;33867;50.314;7.802;2023-07-31T14:21:34;99671.63;;;23.39;58.22
48089;BME280;33867;50.314;7.802;2023-07-31T14:24:53;99676.00;;;23.51;57.79
48089;BME280;33867;50.314;7.802;2023-07-31T14:28:12;99671.41;;;23.40;55.31
48089;BME280;33867;50.314;7.802;2023-07-31T14:31:32;99675.56;;;23.83;56.15
48089;BME280;33867;50.314;7.802;2023-07-31T14:34:51;99667.63;;;24.65;55.75
48089;BME280;33867;50.314;7.802;2023-07-31T14:38:13;99673.44;;;24.69;52.60
48089;BME280;33867;50.314;7.802;2023-07-31T14:41:32;99681.56;;;25.14;51.55
48089;BME280;33867;50.314;7.802;2023-07-31T14:44:53;99673.28;;;24.75;53.00
48089;BME280;33867;50.314;7.802;2023-07-31T14:48:15;99686.13;;;24.36;54.39
48089;BME280;33867;50.314;7.802;2023-07-31T14:51:34;99698.13;;;23.85;55.51
48089;BME280;33867;50.314;7.802;2023-07-31T14:55:02;99699.56;;;23.47;56.68
48089;BME280;33867;50.314;7.802;2023-07-31T14:58:21;99694.69;;;23.38;57.50
48089;BME280;33867;50.314;7.802;2023-07-31T15:01:40;99684.09;;;23.18;57.69
48089;BME280;33867;50.314;7.802;2023-07-31T15:04:59;99700.03;;;23.04;57.71
48089;BME280;33867;50.314;7.802;2023-07-31T15:08:18;99708.97;;;22.76;58.12
48089;BME280;33867;50.314;7.802;2023-07-31T15:11:41;99707.97;;;22.35;59.05
48089;BME280;33867;50.314;7.802;2023-07-31T15:15:05;99708.78;;;22.24;59.94
48089;BME280;33867;50.314;7.802;2023-07-31T15:18:24;99710.25;;;21.97;59.71
48089;BME280;33867;50.314;7.802;2023-07-31T15:21:43;99707.53;;;21.78;59.63
48089;BME280;33867;50.314;7.802;2023-07-31T15:25:03;99720.13;;;22.16;60.41
48089;BME280;33867;50.314;7.802;2023-07-31T15:28:22;99728.19;;;22.11;61.38
48089;BME280;33867;50.314;7.802;2023-07-31T15:31:44;99717.59;;;21.84;61.43
48089;BME280;33867;50.314;7.802;2023-07-31T15:35:03;99705.22;;;21.94;61.62
48089;BME280;33867;50.314;7.802;2023-07-31T15:38:22;99702.13;;;22.02;60.90
48089;BME280;33867;50.314;7.802;2023-07-31T15:41:41;99704.69;;;22.03;61.70
48089;BME280;33867;50.314;7.802;2023-07-31T15:45:01;99701.75;;;21.86;61.03
48089;BME280;33867;50.314;7.802;2023-07-31T15:48:20;99680.88;;;21.85;60.56
48089;BME280;33867;50.314;7.802;2023-07-31T15:51:39;99688.44;;;22.02;61.01
48089;BME280;33867;50.314;7.802;2023-07-31T15:55:02;99680.38;;;22.07;60.64
48089;BME280;33867;50.314;7.802;2023-07-31T15:58:21;99673.19;;;21.94;60.51
48089;BME280;33867;50.314;7.802;2023-07-31T16:01:40;99662.78;;;21.54;60.86
48089;BME280;33867;50.314;7.802;2023-07-31T16:04:59;99664.75;;;21.77;61.65
48089;BME280;33867;50.314;7.802;2023-07-31T16:08:18;99655.28;;;21.80;61.92
48089;BME280;33867;50.314;7.802;2023-07-31T16:11:37;99659.44;;;21.82;62.35
48089;BME280;33867;50.314;7.802;2023-07-31T16:14:56;99650.25;;;21.47;60.91
48089;BME280;33867;50.314;7.802;2023-07-31T16:18:15;99643.19;;;21.39;62.14
48089;BME280;33867;50.314;7.802;2023-07-31T16:21:35;99637.34;;;21.36;63.36
48089;BME280;33867;50.314;7.802;2023-07-31T16:24:54;99643.50;;;21.31;62.94
48089;BME280;33867;50.314;7.802;2023-07-31T16:28:15;99639.03;;;21.00;61.74
48089;BME280;33867;50.314;7.802;2023-07-31T16:31:42;99642.84;;;20.99;63.41
48089;BME280;33867;50.314;7.802;2023-07-31T16:35:01;99625.72;;;21.03;65.68
48089;BME280;33867;50.314;7.802;2023-07-31T16:38:19;99631.28;;;20.97;64.31
48089;BME280;33867;50.314;7.802;2023-07-31T16:45:47;99622.16;;;20.66;67.93
48089;BME280;33867;50.314;7.802;2023-07-31T16:49:08;99610.75;;;20.51;68.12
48089;BME280;33867;50.314;7.802;2023-07-31T16:52:30;99613.16;;;20.59;69.00
48089;BME280;33867;50.314;7.802;2023-07-31T16:55:52;99613.41;;;20.58;70.52
48089;BME280;33867;50.314;7.802;2023-07-31T16:59:11;99594.63;;;20.43;71.08
48089;BME280;33867;50.314;7.802;2023-07-31T17:02:30;99594.63;;;20.43;72.57
48089;BME280;33867;50.314;7.802;2023-07-31T17:05:49;99591.06;;;20.18;73.66
48089;BME280;33867;50.314;7.802;2023-07-31T17:09:08;99589.13;;;20.00;73.52
48089;BME280;33867;50.314;7.802;2023-07-31T17:12:28;99582.66;;;19.69;75.21
48089;BME280;33867;50.314;7.802;2023-07-31T17:15:47;99583.59;;;19.56;75.85
48089;BME280;33867;50.314;7.802;2023-07-31T17:19:06;99581.63;;;19.64;76.10
48089;BME280;33867;50.314;7.802;2023-07-31T17:22:25;99566.97;;;19.58;75.56
48089;BME280;33867;50.314;7.802;2023-07-31T17:25:44;99566.75;;;19.60;76.63
48089;BME280;33867;50.314;7.802;2023-07-31T17:29:03;99562.84;;;19.74;75.38
48089;BME280;33867;50.314;7.802;2023-07-31T17:32:22;99545.91;;;19.65;76.13
48089;BME280;33867;50.314;7.802;2023-07-31T17:35:41;99528.88;;;19.70;76.47
48089;BME280;33867;50.314;7.802;2023-07-31T17:39:01;99527.03;;;19.32;78.17
48089;BME280;33867;50.314;7.802;2023-07-31T17:42:22;99530.16;;;19.29;80.54
48089;BME280;33867;50.314;7.802;2023-07-31T17:45:41;99518.13;;;19.43;78.37
48089;BME280;33867;50.314;7.802;2023-07-31T17:49:00;99512.34;;;19.26;79.18
48089;BME280;33867;50.314;7.802;2023-07-31T17:52:19;99517.28;;;19.11;80.34
48089;BME280;33867;50.314;7.802;2023-07-31T17:55:39;99516.94;;;19.33;77.88
48089;BME280;33867;50.314;7.802;2023-07-31T17:58:58;99518.94;;;19.19;78.40
48089;BME280;33867;50.314;7.802;2023-07-31T18:02:18;99512.44;;;18.75;79.65
48089;BME280;33867;50.314;7.802;2023-07-31T18:05:38;99521.03;;;18.79;82.13
48089;BME280;33867;50.314;7.802;2023-07-31T18:08:57;99507.53;;;18.90;80.78
48089;BME280;33867;50.314;7.802;2023-07-31T18:12:16;99499.97;;;18.92;78.24
48089;BME280;33867;50.314;7.802;2023-07-31T18:15:35;99487.03;;;18.81;79.51
48089;BME280;33867;50.314;7.802;2023-07-31T18:18:56;99488.53;;;18.77;79.24
48089;BME280;33867;50.314;7.802;2023-07-31T18:22:15;99474.84;;;19.15;78.82
48089;BME280;33867;50.314;7.802;2023-07-31T18:25:36;99482.69;;;19.05;79.45
48089;BME280;33867;50.314;7.802;2023-07-31T18:28:55;99471.59;;;18.62;81.24
48089;BME280;33867;50.314;7.802;2023-07-31T18:32:14;99475.34;;;18.74;80.59
48089;BME280;33867;50.314;7.802;2023-07-31T18:35:38;99470.59;;;18.94;81.82
48089;BME280;33867;50.314;7.802;2023-07-31T18:38:57;99474.28;;;18.68;81.17
48089;BME280;33867;50.314;7.802;2023-07-31T18:42:16;99474.56;;;18.98;80.00
48089;BME280;33867;50.314;7.802;2023-07-31T18:45:35;99476.00;;;19.01;80.74
48089;BME280;33867;50.314;7.802;2023-07-31T18:48:54;99487.06;;;18.75;80.80
48089;BME280;33867;50.314;7.802;2023-07-31T18:52:14;99490.19;;;18.78;79.99
48089;BME280;33867;50.314;7.802;2023-07-31T18:55:33;99472.13;;;18.84;79.43
48089;BME280;33867;50.314;7.802;2023-07-31T18:58:52;99473.81;;;18.78;80.39
48089;BME280;33867;50.314;7.802;2023-07-31T19:02:12;99474.50;;;18.74;78.35
48089;BME280;33867;50.314;7.802;2023-07-31T19:05:32;99464.06;;;18.64;79.00
48089;BME280;33867;50.314;7.802;2023-07-31T19:08:52;99460.63;;;18.75;79.23
48089;BME280;33867;50.314;7.802;2023-07-31T19:12:11;99449.72;;;18.75;78.97
48089;BME280;33867;50.314;7.802;2023-07-31T19:15:31;99443.88;;;18.72;80.28
48089;BME280;33867;50.314;7.802;2023-07-31T19:18:59;99444.53;;;18.67;79.39
48089;BME280;33867;50.314;7.802;2023-07-31T19:22:18;99446.81;;;18.70;79.59
48089;BME280;33867;50.314;7.802;2023-07-31T19:25:37;99444.91;;;18.70;78.65
48089;BME280;33867;50.314;7.802;2023-07-31T19:28:56;99431.53;;;18.62;79.55
48089;BME280;33867;50.314;7.802;2023-07-31T19:32:18;99432.16;;;18.58;79.86
48089;BME280;33867;50.314;7.802;2023-07-31T19:35:43;99412.91;;;18.53;79.16
48089;BME280;33867;50.314;7.802;2023-07-31T19:39:02;99425.22;;;18.62;80.23
48089;BME280;33867;50.314;7.802;2023-07-31T19:42:21;99406.19;;;18.55;80.99
48089;BME280;33867;50.314;7.802;2023-07-31T19:45:40;99398.06;;;18.42;78.77
48089;BME280;33867;50.314;7.802;2023-07-31T19:49:01;99422.94;;;18.59;80.27
48089;BME280;33867;50.314;7.802;2023-07-31T19:52:20;99425.69;;;18.52;81.17
48089;BME280;33867;50.314;7.802;2023-07-31T19:55:39;99418.00;;;18.42;82.63
48089;BME280;33867;50.314;7.802;2023-07-31T19:58:58;99409.44;;;18.32;81.21
48089;BME280;33867;50.314;7.802;2023-07-31T20:02:18;99410.06;;;18.34;83.49
48089;BME280;33867;50.314;7.802;2023-07-31T20:05:46;99392.31;;;18.19;84.20
48089;BME280;33867;50.314;7.802;2023-07-31T20:09:07;99395.25;;;18.17;84.22
48089;BME280;33867;50.314;7.802;2023-07-31T20:12:29;99390.34;;;18.39;82.34
48089;BME280;33867;50.314;7.802;2023-07-31T20:15:48;99376.34;;;18.22;86.34
48089;BME280;33867;50.314;7.802;2023-07-31T20:19:11;99381.81;;;17.71;87.84
48089;BME280;33867;50.314;7.802;2023-07-31T20:22:54;99374.69;;;17.76;88.25
48089;BME280;33867;50.314;7.802;2023-07-31T20:26:21;99365.03;;;17.80;88.56
48089;BME280;33867;50.314;7.802;2023-07-31T20:29:40;99362.53;;;17.79;88.78
48089;BME280;33867;50.314;7.802;2023-07-31T20:32:59;99349.97;;;17.58;87.77
48089;BME280;33867;50.314;7.802;2023-07-31T20:36:19;99363.75;;;17.90;86.79
48089;BME280;33867;50.314;7.802;2023-07-31T20:39:38;99350.38;;;17.62;89.44
48089;BME280;33867;50.314;7.802;2023-07-31T20:43:00;99364.25;;;17.47;91.85
48089;BME280;33867;50.314;7.802;2023-07-31T20:46:19;99352.50;;;17.40;92.21
48089;BME280;33867;50.314;7.802;2023-07-31T20:49:38;99346.25;;;17.52;90.90
48089;BME280;33867;50.314;7.802;2023-07-31T20:52:58;99319.84;;;17.53;90.27
48089;BME280;33867;50.314;7.802;2023-07-31T20:56:38;99331.47;;;17.93;88.04
48089;BME280;33867;50.314;7.802;2023-07-31T20:59:57;99328.44;;;18.08;87.30
48089;BME280;33867;50.314;7.802;2023-07-31T21:03:16;99328.13;;;17.91;87.43
48089;BME280;33867;50.314;7.802;2023-07-31T21:06:36;99319.13;;;17.84;88.54
48089;BME280;33867;50.314;7.802;2023-07-31T21:09:55;99304.63;;;17.97;88.33
48089;BME280;33867;50.314;7.802;2023-07-31T21:13:24;99308.03;;;17.86;89.51
48089;BME280;33867;50.314;7.802;2023-07-31T21:16:44;99300.16;;;18.09;86.23
48089;BME280;33867;50.314;7.802;2023-07-31T21:20:03;99288.16;;;18.23;86.69
48089;BME280;33867;50.314;7.802;2023-07-31T21:23:22;99271.78;;;18.23;86.93
48089;BME280;33867;50.314;7.802;2023-07-31T21:26:41;99270.00;;;18.04;87.67
48089;BME280;33867;50.314;7.802;2023-07-31T21:30:03;99265.31;;;18.18;86.74
48089;BME280;33867;50.314;7.802;2023-07-31T21:33:25;99257.13;;;18.24;86.66
48089;BME280;33867;50.314;7.802;2023-07-31T21:37:05;99257.78;;;18.45;84.66
48089;BME280;33867;50.314;7.802;2023-07-31T21:40:24;99251.31;;;18.14;87.32
48089;BME280;33867;50.314;7.802;2023-07-31T21:43:47;99234.31;;;18.44;85.13
48089;BME280;33867;50.314;7.802;2023-07-31T21:47:08;99231.47;;;18.32;86.18
48089;BME280;33867;50.314;7.802;2023-07-31T21:50:30;99231.53;;;18.50;84.50
48089;BME280;33867;50.314;7.802;2023-07-31T21:53:49;99212.22;;;18.27;87.41
48089;BME280;33867;50.314;7.802;2023-07-31T21:57:11;99201.72;;;18.30;85.97
48089;BME280;33867;50.314;7.802;2023-07-31T22:00:49;99197.00;;;18.44;85.13
48089;BME280;33867;50.314;7.802;2023-07-31T22:04:09;99183.31;;;17.56;91.40
48089;BME280;33867;50.314;7.802;2023-07-31T22:07:28;99188.09;;;17.61;90.73
48089;BME280;33867;50.314;7.802;2023-07-31T22:10:47;99206.41;;;17.92;89.43
48089;BME280;33867;50.314;7.802;2023-07-31T22:14:06;99192.34;;;17.50;92.28
48089;BME280;33867;50.314;7.802;2023-07-31T22:17:25;99197.06;;;17.74;90.49
48089;BME280;33867;50.314;7.802;2023-07-31T22:20:51;99197.88;;;17.81;91.68
48089;BME280;33867;50.314;7.802;2023-07-31T22:24:16;99187.91;;;17.69;91.03
48089;BME280;33867;50.314;7.802;2023-07-31T22:27:35;99175.03;;;17.82;89.77
48089;BME280;33867;50.314;7.802;2023-07-31T22:30:57;99188.75;;;18.01;89.19
48089;BME280;33867;50.314;7.802;2023-07-31T22:34:20;99180.63;;;17.94;89.90
48089;BME280;33867;50.314;7.802;2023-07-31T22:37:43;99182.75;;;17.86;90.77
48089;BME280;33867;50.314;7.802;2023-07-31T22:41:02;99168.31;;;17.85;90.32
48089;BME280;33867;50.314;7.802;2023-07-31T22:44:23;99179.81;;;17.87;91.01
48089;BME280;33867;50.314;7.802;2023-07-31T22:47:42;99165.34;;;17.55;94.19
48089;BME280;33867;50.314;7.802;2023-07-31T22:51:06;99166.84;;;17.44;94.11